createdAt,value
2022-08-23T08:50:09.824Z,76.25
2022-08-23T09:06:43.788Z,76.38
2022-08-23T09:09:42.505Z,76.90
2022-08-23T09:39:43.888Z,78.42
2022-08-23T11:09:48.818Z,80.07
2022-08-23T11:52:11.535Z,80.42
2022-08-23T11:54:47.908Z,79.58
2022-08-23T11:57:56.898Z,79.84
2022-08-23T12:00:54.962Z,80.43
2022-08-23T12:03:55.803Z,81.20
2022-08-23T12:06:51.521Z,82.02
2022-08-23T12:13:56.864Z,83.72
2022-08-23T12:16:49.949Z,84.44
2022-08-23T12:24:03.084Z,85.57
2022-08-23T12:26:52.033Z,85.28
2022-08-23T12:30:14.994Z,85.73
2022-08-23T12:39:10.756Z,85.63
2022-08-23T12:42:28.712Z,86.03
2022-08-23T12:48:17.882Z,86.37
2022-08-23T12:51:17.232Z,86.88
2022-08-23T12:54:14.785Z,87.90
2022-08-23T13:00:50.390Z,87.71
2022-08-23T13:06:49.827Z,88.30
2022-08-23T13:09:53.889Z,88.24
2022-08-23T13:12:45.545Z,88.67
2022-08-23T13:15:38.422Z,89.67
2022-08-23T13:18:50.233Z,89.06
2022-08-23T13:21:46.570Z,88.71
2022-08-23T13:25:28.258Z,88.51
2022-08-23T13:34:50.107Z,88.34
2022-08-23T13:38:21.438Z,87.91
2022-08-23T13:48:25.376Z,88.61
2022-08-23T13:59:16.538Z,88.66
2022-08-23T14:02:14.289Z,89.25
2022-08-23T14:10:35.948Z,90.32
2022-08-23T14:20:31.429Z,89.84
2022-08-23T14:29:15.431Z,89.86
2022-08-23T14:38:18.355Z,90.77
2022-08-23T14:41:16.021Z,90.87
2022-08-23T14:54:28.785Z,90.50
2022-08-23T14:57:46.419Z,90.12
2022-08-23T15:00:20.811Z,89.45
2022-08-23T15:03:21.698Z,89.16
2022-08-23T15:10:49.908Z,88.47
2022-08-23T15:16:24.965Z,88.63
2022-08-23T16:09:29.151Z,78.35
2022-08-23T16:29:56.173Z,73.95
2022-08-23T17:17:31.513Z,67.74
2022-08-23T18:10:33.781Z,61.43
2022-08-23T18:13:17.885Z,60.31
2022-08-23T18:15:46.195Z,60.18
2022-08-23T18:18:15.828Z,59.46
2022-08-23T18:20:47.217Z,59.34
2022-08-23T18:23:18.906Z,59.50
2022-08-23T18:25:47.771Z,59.17
2022-08-23T18:28:19.019Z,58.13
2022-08-23T18:30:56.683Z,58.58
2022-08-23T18:33:46.339Z,58.23
2022-08-23T18:36:19.099Z,58.20
2022-08-23T18:38:49.192Z,58.00
2022-08-23T18:41:20.688Z,58.15
2022-08-23T18:43:49.215Z,57.87
2022-08-23T18:46:18.026Z,57.67
2022-08-23T18:48:52.673Z,57.42
2022-08-23T18:51:32.409Z,57.57
2022-08-23T18:54:04.592Z,58.72
2022-08-23T18:56:48.344Z,58.21
2022-08-23T18:59:19.083Z,56.88
2022-08-23T19:01:50.647Z,54.73
2022-08-23T19:04:19.642Z,54.68
2022-08-23T19:06:48.222Z,55.11
2022-08-23T19:09:19.451Z,54.49
2022-08-23T19:11:50.991Z,54.44
2022-08-23T19:14:20.255Z,54.57
2022-08-23T19:16:48.891Z,54.46
2022-08-23T19:19:20.933Z,54.53
2022-08-23T19:21:51.120Z,55.10
2022-08-23T19:24:19.387Z,56.02
2022-08-23T19:26:50.862Z,55.07
2022-08-23T19:29:21.481Z,54.84
2022-08-23T19:31:53.651Z,54.39
2022-08-23T19:34:23.775Z,53.43
2022-08-23T19:37:00.703Z,52.62
2022-08-23T19:40:20.305Z,51.93
2022-08-23T19:43:21.680Z,48.51
2022-08-23T19:46:24.324Z,49.75
2022-08-23T19:52:21.301Z,50.74
2022-08-23T19:55:34.672Z,50.11
2022-08-23T19:58:24.690Z,49.98
2022-08-23T20:01:19.851Z,50.71
2022-08-23T20:11:22.886Z,50.63
2022-08-23T20:13:52.636Z,50.78
2022-08-23T20:16:21.402Z,50.85
2022-08-23T20:18:59.008Z,50.59
2022-08-23T20:22:20.161Z,50.57
2022-08-23T20:24:56.814Z,50.71
2022-08-23T20:27:30.483Z,50.58
2022-08-23T20:30:20.886Z,49.93
2022-08-23T20:32:51.960Z,49.67
2022-08-23T20:35:22.746Z,49.83
2022-08-23T20:38:33.330Z,49.19
2022-08-23T20:41:21.984Z,49.31
2022-08-23T20:43:54.170Z,49.25
2022-08-23T20:46:26.183Z,49.12
2022-08-23T20:48:55.205Z,49.61
2022-08-23T20:51:23.513Z,48.78
2022-08-23T20:53:55.902Z,49.15
2022-08-23T20:56:26.158Z,48.64
2022-08-23T20:58:57.066Z,48.64
2022-08-23T21:01:25.935Z,49.01
2022-08-23T21:03:54.590Z,48.68
2022-08-23T21:06:28.993Z,48.62
2022-08-23T21:08:59.941Z,48.40
2022-08-23T21:11:31.881Z,48.11
2022-08-23T21:14:00.285Z,47.81
2022-08-23T21:16:29.650Z,48.62
2022-08-23T21:18:58.336Z,48.38
2022-08-23T21:21:27.268Z,48.22
2022-08-23T21:23:56.437Z,48.00
2022-08-23T21:26:25.818Z,47.96
2022-08-23T21:28:54.343Z,48.25
2022-08-23T21:31:27.407Z,47.02
2022-08-23T21:33:56.127Z,47.40
2022-08-23T21:36:25.087Z,47.63
2022-08-23T21:38:56.553Z,48.22
2022-08-23T21:41:56.992Z,47.33
2022-08-23T21:44:26.548Z,48.04
2022-08-23T21:46:54.811Z,47.44
2022-08-23T21:49:24.022Z,47.50
2022-08-23T21:51:57.892Z,45.95
2022-08-23T21:54:27.269Z,46.36
2022-08-23T21:56:56.761Z,46.22
2022-08-23T21:59:26.951Z,46.72
2022-08-23T22:05:54.316Z,47.59
2022-08-23T22:09:27.865Z,47.53
2022-08-23T22:12:25.716Z,47.75
2022-08-23T22:14:57.372Z,47.92
2022-08-23T22:17:26.595Z,48.09
2022-08-23T22:19:56.245Z,48.24
2022-08-23T22:22:28.231Z,47.82
2022-08-23T22:24:59.546Z,48.22
2022-08-23T22:27:31.029Z,48.48
2022-08-23T22:30:08.329Z,48.16
2022-08-23T22:52:32.860Z,50.05
2022-08-23T22:55:27.922Z,50.47
2022-08-23T23:57:58.338Z,51.48
